Ana Sayfa
METAR-TAF:

METAR-TAF

Havaalanları :

Cebelitarık, Cebelitarık

Cebelitarık Havalimanı

Enlem: 36-09N, Boylam: 005-21W, yükseklik: 5 m

Güncel hava durumu gözlemi

Rapor saat 20:50 UTC de 34 dakika önce yapıldı.
Rüzgar batıdan 3 kt
Sıcaklık 12°C
Nem 88%
Basınç 1026 hPa
Görüş mesafesi 10 km veya daha fazla

METAR: LXGB 162050Z AUTO 26003KT 9999 // NCD 12/10 Q1026

Saat: 22:24 (21:24 UTC)

Tahmin

Rapor saat 13:37 UTC de 7 saat ve 47 dakika önce yapıldı.
Ayın 16'si saat 15 UTC'den ayın 16'si saat 22 UTC'ye kadar geçerli Tahmin
Rüzgar doğudan 4 kt
Görüş mesafesi 10 km veya daha fazla
2500 ft yükseklikte az bulutlu

TAF: LXGB 161337Z 1615/1622 10004KT 9999 FEW025

4.000'den fazla havaalanı için hava durumu gözlemleri ve tahminleri (METAR ve TAF raporları).

Kullanılabilir istasyonlar harita üzerinde sarı ve kırmızı noktalarla gösterilir.

İstasyonun adını görmek için fareyi noktanın üzerinde gezdirin.

Sonrasında hava gözlem ve tahminlerini görmek için tıklayın.

Haritayı değiştirmek için: yaklaştırmak için siyah artı işaretli yeşil düğmeye ve uzaklaştırmak için de eksi işaretli düğmeye hızla tıklayın; bitişik haritalar için yeşil okları kullanın.


METAR-TAF: